createdAt,value
2023-03-19T00:00:30.864Z,100156.91
2023-03-19T00:03:18.412Z,100167.63
2023-03-19T00:05:54.925Z,100168.19
2023-03-19T00:08:22.942Z,100172.13
2023-03-19T00:10:51.075Z,100166.63
2023-03-19T00:13:19.765Z,100172.13
2023-03-19T00:15:50.459Z,100175.22
2023-03-19T00:18:18.055Z,100160.81
2023-03-19T00:20:45.909Z,100169.00
2023-03-19T00:23:13.473Z,100164.22
2023-03-19T00:25:40.866Z,100184.00
2023-03-19T00:28:08.420Z,100168.59
2023-03-19T00:30:36.495Z,100162.09
2023-03-19T00:33:04.241Z,100171.16
2023-03-19T00:35:31.599Z,100162.66
2023-03-19T00:37:59.224Z,100167.91
2023-03-19T00:40:27.418Z,100172.97
2023-03-19T00:42:55.019Z,100156.59
2023-03-19T00:45:22.258Z,100159.94
2023-03-19T00:47:49.821Z,100161.03
2023-03-19T00:50:17.310Z,100159.25
2023-03-19T00:52:44.802Z,100165.56
2023-03-19T00:55:11.989Z,100169.44
2023-03-19T00:57:39.660Z,100162.81
2023-03-19T01:00:08.761Z,100167.03
2023-03-19T01:02:37.080Z,100166.75
2023-03-19T01:05:04.580Z,100176.63
2023-03-19T01:07:33.081Z,100178.84
2023-03-19T01:10:00.344Z,100177.50
2023-03-19T01:12:28.467Z,100177.97
2023-03-19T01:14:55.763Z,100190.25
2023-03-19T01:17:23.513Z,100177.25
2023-03-19T01:19:50.999Z,100178.78
2023-03-19T01:22:18.744Z,100191.69
2023-03-19T01:24:53.041Z,100178.28
2023-03-19T01:27:21.345Z,100181.97
2023-03-19T01:29:50.934Z,100179.28
2023-03-19T01:32:28.379Z,100176.69
2023-03-19T01:35:14.004Z,100196.03
2023-03-19T01:37:41.767Z,100178.50
2023-03-19T01:40:13.357Z,100191.72
2023-03-19T01:42:57.751Z,100186.59
2023-03-19T01:45:44.966Z,100174.78
2023-03-19T01:48:44.872Z,100178.69
2023-03-19T01:51:17.825Z,100179.34
2023-03-19T01:54:02.748Z,100185.56
2023-03-19T01:56:39.804Z,100187.41
2023-03-19T01:59:41.988Z,100196.16
2023-03-19T02:02:29.465Z,100200.19
2023-03-19T02:05:09.553Z,100200.72
2023-03-19T02:07:39.899Z,100203.00
2023-03-19T02:10:11.936Z,100192.19
2023-03-19T02:12:39.317Z,100199.91
2023-03-19T02:15:07.378Z,100196.97
2023-03-19T02:17:34.989Z,100193.84
2023-03-19T02:20:08.890Z,100198.34
2023-03-19T02:22:40.207Z,100191.88
2023-03-19T02:25:17.314Z,100188.78
2023-03-19T02:27:46.922Z,100183.41
2023-03-19T02:30:21.457Z,100185.31
2023-03-19T02:32:49.158Z,100181.00
2023-03-19T02:35:16.924Z,100194.38
2023-03-19T02:37:44.271Z,100185.22
2023-03-19T02:40:19.603Z,100188.78
2023-03-19T02:42:46.885Z,100172.94
2023-03-19T02:45:15.038Z,100185.09
2023-03-19T02:47:42.279Z,100180.00
2023-03-19T02:50:10.577Z,100191.00
2023-03-19T02:52:37.817Z,100187.75
2023-03-19T02:55:06.561Z,100186.22
2023-03-19T02:57:35.482Z,100187.31
2023-03-19T03:00:05.156Z,100176.19
2023-03-19T03:02:32.683Z,100190.69
2023-03-19T03:05:00.502Z,100169.53
2023-03-19T03:07:27.710Z,100186.50
2023-03-19T03:09:55.256Z,100186.09
2023-03-19T03:12:22.754Z,100181.78
2023-03-19T03:14:50.298Z,100181.66
2023-03-19T03:17:19.295Z,100182.59
2023-03-19T03:19:47.828Z,100193.75
2023-03-19T03:22:15.161Z,100197.19
2023-03-19T03:24:42.694Z,100185.19
2023-03-19T03:27:10.088Z,100198.25
2023-03-19T03:29:38.127Z,100185.59
2023-03-19T03:32:07.261Z,100185.78
2023-03-19T03:34:34.958Z,100184.41
2023-03-19T03:37:02.154Z,100200.69
2023-03-19T03:39:29.802Z,100204.34
2023-03-19T03:41:57.136Z,100211.00
2023-03-19T03:44:24.957Z,100208.75
2023-03-19T03:46:52.545Z,100196.81
2023-03-19T03:49:20.180Z,100201.88
2023-03-19T03:51:47.632Z,100202.44
2023-03-19T03:54:15.513Z,100207.53
2023-03-19T03:56:42.714Z,100203.34
2023-03-19T03:59:10.321Z,100204.03
2023-03-19T04:01:37.574Z,100196.63
2023-03-19T04:04:05.450Z,100199.97
2023-03-19T04:06:32.864Z,100195.03
2023-03-19T04:09:19.657Z,100201.81
2023-03-19T04:11:49.781Z,100206.56
2023-03-19T04:14:18.904Z,100205.94
2023-03-19T04:16:46.757Z,100212.25
2023-03-19T04:19:14.530Z,100199.28
2023-03-19T04:21:41.856Z,100196.59
2023-03-19T04:24:10.631Z,100207.03
2023-03-19T04:26:38.465Z,100208.97
2023-03-19T04:29:08.574Z,100214.44
2023-03-19T04:31:36.177Z,100211.41
2023-03-19T04:34:03.909Z,100200.28
2023-03-19T04:36:31.322Z,100187.16
2023-03-19T04:38:58.943Z,100206.31
2023-03-19T04:41:27.187Z,100209.41
2023-03-19T04:44:06.022Z,100205.31
2023-03-19T04:46:34.243Z,100207.91
2023-03-19T04:49:02.961Z,100214.25
2023-03-19T04:51:30.900Z,100204.06
2023-03-19T04:53:58.949Z,100200.97
2023-03-19T04:56:27.818Z,100201.44
2023-03-19T04:58:56.053Z,100187.88
2023-03-19T05:01:23.878Z,100199.28
2023-03-19T05:04:04.173Z,100204.03
2023-03-19T05:06:34.190Z,100193.47
2023-03-19T05:09:02.548Z,100193.75
2023-03-19T05:11:29.850Z,100201.47
2023-03-19T05:14:05.615Z,100194.69
2023-03-19T05:17:08.708Z,100191.19
2023-03-19T05:19:48.758Z,100183.38
2023-03-19T05:22:17.282Z,100187.19
2023-03-19T05:24:45.589Z,100194.50
2023-03-19T05:27:13.413Z,100192.19
2023-03-19T05:30:05.786Z,100185.84
2023-03-19T05:33:00.037Z,100200.88
2023-03-19T05:35:34.803Z,100206.31
2023-03-19T05:38:03.980Z,100209.69
2023-03-19T05:40:32.861Z,100204.88
2023-03-19T05:43:05.833Z,100200.34
2023-03-19T05:45:33.659Z,100213.94
2023-03-19T05:48:09.157Z,100204.00
2023-03-19T05:50:42.623Z,100207.91
2023-03-19T05:53:20.465Z,100214.97
2023-03-19T05:56:08.489Z,100210.44
2023-03-19T05:58:45.801Z,100221.44
2023-03-19T06:01:16.313Z,100209.66
2023-03-19T06:03:44.525Z,100223.56
2023-03-19T06:06:12.411Z,100225.56
2023-03-19T06:08:43.698Z,100235.19
2023-03-19T06:11:21.932Z,100231.16
2023-03-19T06:13:58.688Z,100227.03
2023-03-19T06:16:27.233Z,100221.63
2023-03-19T06:18:55.281Z,100218.13
2023-03-19T06:21:29.694Z,100231.53
2023-03-19T06:24:00.174Z,100234.31
2023-03-19T06:26:33.873Z,100230.56
2023-03-19T06:29:05.009Z,100233.72
2023-03-19T06:31:33.060Z,100238.16
2023-03-19T06:34:03.273Z,100238.44
2023-03-19T06:36:39.350Z,100234.94
2023-03-19T06:39:09.391Z,100241.91
2023-03-19T06:41:37.416Z,100239.16
2023-03-19T06:44:17.507Z,100236.47
2023-03-19T06:46:45.200Z,100249.16
2023-03-19T06:49:12.458Z,100240.03
2023-03-19T06:51:40.080Z,100241.75
2023-03-19T06:54:07.320Z,100250.66
2023-03-19T06:56:34.845Z,100252.31
2023-03-19T06:59:02.360Z,100250.78
2023-03-19T07:01:29.936Z,100241.00
2023-03-19T07:03:57.511Z,100260.31
2023-03-19T07:06:25.096Z,100254.56
2023-03-19T07:08:52.336Z,100260.56
2023-03-19T07:11:19.849Z,100252.44
2023-03-19T07:13:47.183Z,100262.84
2023-03-19T07:16:14.923Z,100269.06
2023-03-19T07:18:42.171Z,100268.81
2023-03-19T07:21:09.691Z,100273.47
2023-03-19T07:23:36.916Z,100274.09
2023-03-19T07:26:04.621Z,100264.41
2023-03-19T07:28:31.875Z,100271.72
2023-03-19T07:30:59.429Z,100280.06
2023-03-19T07:33:26.679Z,100268.66
2023-03-19T07:35:54.367Z,100279.72
2023-03-19T07:38:21.772Z,100286.84
2023-03-19T07:41:01.432Z,100278.72
2023-03-19T07:43:29.399Z,100293.91
2023-03-19T07:45:57.217Z,100291.09
2023-03-19T07:48:24.597Z,100295.88
2023-03-19T07:50:52.389Z,100292.44
2023-03-19T07:53:20.091Z,100289.97
2023-03-19T07:55:48.568Z,100287.69
2023-03-19T07:58:16.918Z,100292.84
2023-03-19T08:00:45.265Z,100304.53
2023-03-19T08:03:12.699Z,100287.63
2023-03-19T08:05:40.261Z,100291.72
2023-03-19T08:08:08.026Z,100292.69
2023-03-19T08:10:37.900Z,100296.44
2023-03-19T08:13:05.525Z,100295.03
2023-03-19T08:15:33.239Z,100298.69
2023-03-19T08:18:02.111Z,100292.03
2023-03-19T08:20:30.092Z,100283.81
2023-03-19T08:22:58.108Z,100288.22
2023-03-19T08:25:26.202Z,100279.53
2023-03-19T08:27:53.448Z,100279.59
2023-03-19T08:30:21.142Z,100280.13
2023-03-19T08:32:49.445Z,100282.75
2023-03-19T08:35:17.517Z,100279.66
2023-03-19T08:37:44.896Z,100259.69
2023-03-19T08:40:12.927Z,100265.41
2023-03-19T08:42:44.373Z,100271.03
2023-03-19T08:45:15.049Z,100270.63
2023-03-19T08:47:43.649Z,100275.44
2023-03-19T08:50:12.241Z,100271.38
2023-03-19T08:52:39.477Z,100271.88
2023-03-19T08:55:08.511Z,100270.13
2023-03-19T08:57:36.744Z,100274.25
2023-03-19T09:00:05.861Z,100278.31
2023-03-19T09:02:33.172Z,100267.78
2023-03-19T09:05:01.007Z,100263.31
2023-03-19T09:07:28.270Z,100270.28
2023-03-19T09:09:55.830Z,100274.34
2023-03-19T09:12:23.225Z,100267.16
2023-03-19T09:14:51.869Z,100267.44
2023-03-19T09:17:19.115Z,100266.66
2023-03-19T09:19:46.633Z,100268.28
2023-03-19T09:22:13.856Z,100259.97
2023-03-19T09:24:41.596Z,100275.25
2023-03-19T09:27:08.904Z,100274.53
2023-03-19T09:29:36.637Z,100273.16
2023-03-19T09:32:04.466Z,100263.31
2023-03-19T09:34:32.011Z,100268.28
2023-03-19T09:36:59.304Z,100265.56
2023-03-19T09:39:26.852Z,100270.06
2023-03-19T09:42:28.032Z,100278.34
2023-03-19T09:44:55.909Z,100274.75
2023-03-19T09:47:29.644Z,100268.66
2023-03-19T09:50:04.212Z,100267.09
2023-03-19T09:52:54.844Z,100266.38
2023-03-19T09:55:34.546Z,100261.56
2023-03-19T09:58:02.740Z,100259.91
2023-03-19T10:00:34.589Z,100247.88
2023-03-19T10:03:14.685Z,100262.59
2023-03-19T10:06:06.917Z,100256.47
2023-03-19T10:08:38.684Z,100251.63
2023-03-19T10:11:15.474Z,100253.13
2023-03-19T10:14:29.703Z,100263.84
2023-03-19T10:17:00.190Z,100252.84
2023-03-19T10:19:56.842Z,100259.66
2023-03-19T10:22:33.554Z,100259.84
2023-03-19T10:25:02.875Z,100253.28
2023-03-19T10:27:30.392Z,100252.00
2023-03-19T10:29:57.688Z,100238.53
2023-03-19T10:32:41.565Z,100254.47
2023-03-19T10:35:19.775Z,100257.13
2023-03-19T10:37:50.134Z,100244.75
2023-03-19T10:40:26.588Z,100252.78
2023-03-19T10:43:06.244Z,100250.59
2023-03-19T10:45:38.486Z,100243.97
2023-03-19T10:48:12.222Z,100244.34
2023-03-19T10:51:06.222Z,100247.13
2023-03-19T10:53:37.618Z,100252.78
2023-03-19T10:56:08.027Z,100251.88
2023-03-19T10:58:37.064Z,100234.00
2023-03-19T11:01:11.199Z,100246.63
2023-03-19T11:04:00.589Z,100248.28
2023-03-19T11:06:36.170Z,100245.97
2023-03-19T11:09:19.837Z,100241.03
2023-03-19T11:11:53.710Z,100238.59
2023-03-19T11:14:26.321Z,100235.16
2023-03-19T11:17:06.488Z,100228.03
2023-03-19T11:19:41.442Z,100226.50
2023-03-19T11:22:23.049Z,100225.59
2023-03-19T11:24:56.455Z,100225.94
2023-03-19T11:27:29.771Z,100222.22
2023-03-19T11:29:57.731Z,100222.31
2023-03-19T11:32:37.352Z,100233.00
2023-03-19T11:35:16.124Z,100229.13
2023-03-19T11:37:56.759Z,100228.28
2023-03-19T11:40:32.018Z,100234.53
2023-03-19T11:43:29.248Z,100225.34
2023-03-19T11:46:02.916Z,100218.41
2023-03-19T11:48:45.416Z,100224.38
2023-03-19T11:51:20.699Z,100221.47
2023-03-19T11:54:38.835Z,100224.63
2023-03-19T11:57:24.535Z,100221.41
2023-03-19T12:00:19.151Z,100212.34
2023-03-19T12:03:19.123Z,100211.88
2023-03-19T12:06:01.299Z,100211.47
2023-03-19T12:08:34.035Z,100215.72
2023-03-19T12:11:32.495Z,100193.50
2023-03-19T12:14:16.373Z,100201.69
2023-03-19T12:17:04.387Z,100200.50
2023-03-19T12:20:14.863Z,100187.47
2023-03-19T12:23:06.718Z,100186.72
2023-03-19T12:25:37.262Z,100181.47
2023-03-19T12:28:29.253Z,100195.56
2023-03-19T12:31:42.460Z,100181.75
2023-03-19T12:34:24.906Z,100179.88
2023-03-19T12:37:07.957Z,100176.31
2023-03-19T12:39:38.840Z,100183.94
2023-03-19T12:42:13.496Z,100178.81
2023-03-19T12:44:46.679Z,100176.25
2023-03-19T12:47:19.533Z,100180.22
2023-03-19T12:50:01.482Z,100176.16
2023-03-19T12:52:49.608Z,100168.16
2023-03-19T12:55:36.459Z,100177.13
2023-03-19T12:58:14.417Z,100168.28
2023-03-19T13:01:02.669Z,100170.41
2023-03-19T13:03:39.095Z,100164.91
2023-03-19T13:06:32.271Z,100158.66
2023-03-19T13:08:59.804Z,100157.91
2023-03-19T13:11:45.734Z,100160.63
2023-03-19T13:14:22.552Z,100170.41
2023-03-19T13:17:06.777Z,100158.03
2023-03-19T13:19:40.797Z,100162.56
2023-03-19T13:22:13.104Z,100158.19
2023-03-19T13:24:44.696Z,100151.00
2023-03-19T13:27:22.840Z,100156.16
2023-03-19T13:30:19.415Z,100163.34
2023-03-19T13:33:05.095Z,100155.00
2023-03-19T13:35:38.082Z,100156.50
2023-03-19T13:38:15.445Z,100153.41
2023-03-19T13:40:54.476Z,100153.19
2023-03-19T13:43:30.896Z,100149.69
2023-03-19T13:46:04.885Z,100142.75
2023-03-19T13:48:32.136Z,100147.41
2023-03-19T13:51:06.438Z,100145.88
2023-03-19T13:53:54.040Z,100148.41
2023-03-19T13:56:29.907Z,100145.63
2023-03-19T13:59:15.790Z,100154.03
2023-03-19T14:01:45.066Z,100148.84
2023-03-19T14:04:32.428Z,100149.22
2023-03-19T14:07:17.414Z,100147.91
2023-03-19T14:10:07.743Z,100151.06
2023-03-19T14:12:37.946Z,100135.25
2023-03-19T14:15:11.255Z,100154.56
2023-03-19T14:17:53.981Z,100152.03
2023-03-19T14:20:53.253Z,100157.38
2023-03-19T14:23:38.391Z,100143.25
2023-03-19T14:26:15.906Z,100148.53
2023-03-19T14:29:02.596Z,100151.38
2023-03-19T14:31:39.165Z,100149.63
2023-03-19T14:34:22.098Z,100145.50
2023-03-19T14:36:52.498Z,100145.03
2023-03-19T14:39:29.296Z,100153.41
2023-03-19T14:42:08.688Z,100148.78
2023-03-19T14:44:54.934Z,100148.41
2023-03-19T14:47:49.862Z,100145.91
2023-03-19T14:50:29.894Z,100150.38
2023-03-19T14:53:11.242Z,100150.53
2023-03-19T14:55:38.871Z,100160.13
2023-03-19T14:58:06.264Z,100144.31
2023-03-19T15:00:55.602Z,100154.41
2023-03-19T15:03:34.939Z,100161.47
2023-03-19T15:06:05.587Z,100152.81
2023-03-19T15:08:36.472Z,100156.06
2023-03-19T15:11:33.916Z,100163.75
2023-03-19T15:14:13.969Z,100157.78
2023-03-19T15:16:55.144Z,100154.69
2023-03-19T15:19:29.822Z,100160.00
2023-03-19T15:22:14.912Z,100161.63
2023-03-19T15:24:43.076Z,100159.53
2023-03-19T15:27:25.921Z,100158.97
2023-03-19T15:30:02.072Z,100154.97
2023-03-19T15:33:08.971Z,100168.84
2023-03-19T15:35:32.076Z,100163.63
2023-03-19T15:38:02.888Z,100174.03
2023-03-19T15:40:32.770Z,100170.31
2023-03-19T15:43:02.799Z,100166.44
2023-03-19T15:45:33.940Z,100170.94
2023-03-19T15:48:09.526Z,100164.59
2023-03-19T15:50:43.783Z,100170.59
2023-03-19T15:53:17.224Z,100173.50
2023-03-19T15:55:44.777Z,100166.38
2023-03-19T15:58:19.122Z,100179.50
2023-03-19T16:00:47.068Z,100174.22
2023-03-19T16:03:20.344Z,100172.34
2023-03-19T16:05:52.680Z,100176.34
2023-03-19T16:08:25.459Z,100171.75
2023-03-19T16:10:53.419Z,100181.75
2023-03-19T16:13:27.304Z,100178.03
2023-03-19T16:16:02.925Z,100189.69
2023-03-19T16:18:42.064Z,100185.97
2023-03-19T16:21:15.188Z,100188.00
2023-03-19T16:23:46.612Z,100181.91
2023-03-19T16:26:26.421Z,100173.47
2023-03-19T16:29:03.214Z,100167.72
2023-03-19T16:31:36.485Z,100175.47
2023-03-19T16:34:04.096Z,100183.22
2023-03-19T16:36:33.636Z,100178.34
2023-03-19T16:39:30.672Z,100178.75
2023-03-19T16:42:28.729Z,100193.31
2023-03-19T16:44:56.709Z,100188.91
2023-03-19T16:47:23.989Z,100182.44
2023-03-19T16:49:51.705Z,100195.31
2023-03-19T16:52:22.527Z,100196.31
2023-03-19T16:54:51.892Z,100187.69
2023-03-19T16:57:19.816Z,100201.53
2023-03-19T16:59:48.234Z,100203.88
2023-03-19T17:02:17.365Z,100200.81
2023-03-19T17:04:46.008Z,100191.09
2023-03-19T17:07:13.716Z,100190.63
2023-03-19T17:09:41.236Z,100202.25
2023-03-19T17:12:15.560Z,100197.44
2023-03-19T17:14:43.526Z,100198.16
2023-03-19T17:17:19.562Z,100190.91
2023-03-19T17:19:47.371Z,100194.59
2023-03-19T17:22:14.644Z,100200.88
2023-03-19T17:24:42.495Z,100191.00
2023-03-19T17:27:09.864Z,100202.94
2023-03-19T17:29:37.377Z,100194.22
2023-03-19T17:32:07.154Z,100194.59
2023-03-19T17:34:36.939Z,100198.13
2023-03-19T17:37:10.845Z,100200.81
2023-03-19T17:39:38.512Z,100198.34
2023-03-19T17:42:24.303Z,100209.47
2023-03-19T17:44:52.254Z,100205.03
2023-03-19T17:47:20.200Z,100211.59
2023-03-19T17:49:48.063Z,100208.91
2023-03-19T17:52:19.100Z,100215.91
2023-03-19T17:54:46.712Z,100219.28
2023-03-19T17:57:15.314Z,100223.66
2023-03-19T17:59:42.934Z,100216.91
2023-03-19T18:02:22.091Z,100212.50
2023-03-19T18:04:52.390Z,100211.50
2023-03-19T18:07:20.018Z,100202.47
2023-03-19T18:09:47.544Z,100207.03
2023-03-19T18:12:15.300Z,100208.59
2023-03-19T18:14:42.802Z,100205.56
2023-03-19T18:17:17.044Z,100205.69
2023-03-19T18:19:47.477Z,100208.03
2023-03-19T18:22:19.230Z,100207.56
2023-03-19T18:24:46.930Z,100214.09
2023-03-19T18:27:14.761Z,100215.44
2023-03-19T18:29:42.359Z,100212.75
2023-03-19T18:32:16.837Z,100211.34
2023-03-19T18:34:44.500Z,100220.13
2023-03-19T18:37:17.292Z,100203.41
2023-03-19T18:39:45.076Z,100217.13
2023-03-19T18:42:13.644Z,100216.75
2023-03-19T18:44:41.295Z,100210.09
2023-03-19T18:47:14.975Z,100208.88
2023-03-19T18:49:43.580Z,100208.22
2023-03-19T18:52:16.426Z,100201.63
2023-03-19T18:54:46.096Z,100199.31
2023-03-19T18:57:14.419Z,100204.06
2023-03-19T18:59:42.419Z,100206.72
2023-03-19T19:02:28.669Z,100207.78
2023-03-19T19:04:56.322Z,100214.09
2023-03-19T19:07:23.589Z,100205.38
2023-03-19T19:09:51.221Z,100208.47
2023-03-19T19:12:19.583Z,100209.06
2023-03-19T19:14:47.184Z,100211.03
2023-03-19T19:17:21.262Z,100209.41
2023-03-19T19:19:48.804Z,100207.53
2023-03-19T19:22:18.478Z,100211.06
2023-03-19T19:24:46.536Z,100202.28
2023-03-19T19:27:20.730Z,100213.72
2023-03-19T19:29:49.373Z,100202.84
2023-03-19T19:32:24.871Z,100204.63
2023-03-19T19:34:53.233Z,100194.72
2023-03-19T19:37:23.288Z,100203.22
2023-03-19T19:39:51.768Z,100208.47
2023-03-19T19:42:21.256Z,100214.53
2023-03-19T19:44:55.418Z,100208.00
2023-03-19T19:47:22.796Z,100209.66
2023-03-19T19:49:50.583Z,100215.75
2023-03-19T19:52:19.642Z,100201.16
2023-03-19T19:54:47.739Z,100199.00
2023-03-19T19:57:27.077Z,100223.97
2023-03-19T19:59:55.684Z,100214.97
2023-03-19T20:02:28.982Z,100204.50
2023-03-19T20:04:57.972Z,100213.91
2023-03-19T20:07:25.780Z,100210.47
2023-03-19T20:09:53.386Z,100207.34
2023-03-19T20:12:22.318Z,100216.41
2023-03-19T20:14:51.211Z,100209.31
2023-03-19T20:17:21.130Z,100213.22
2023-03-19T20:19:48.900Z,100213.91
2023-03-19T20:22:16.619Z,100216.31
2023-03-19T20:24:45.117Z,100216.22
2023-03-19T20:27:19.096Z,100198.16
2023-03-19T20:29:46.941Z,100216.72
2023-03-19T20:32:38.456Z,100209.81
2023-03-19T20:35:16.721Z,100210.03
2023-03-19T20:37:44.190Z,100199.88
2023-03-19T20:40:13.236Z,100198.88
2023-03-19T20:42:41.511Z,100195.88
2023-03-19T20:45:16.153Z,100192.25
2023-03-19T20:47:43.502Z,100204.44
2023-03-19T20:50:38.256Z,100198.06
2023-03-19T20:53:05.857Z,100199.19
2023-03-19T20:55:36.285Z,100201.50
2023-03-19T20:58:14.421Z,100192.59
2023-03-19T21:00:42.244Z,100189.97
2023-03-19T21:03:16.907Z,100200.03
2023-03-19T21:05:45.252Z,100195.00
2023-03-19T21:08:16.422Z,100193.69
2023-03-19T21:10:45.085Z,100190.94
2023-03-19T21:13:15.661Z,100179.81
2023-03-19T21:15:44.959Z,100187.50
2023-03-19T21:18:13.157Z,100188.06
2023-03-19T21:20:43.001Z,100187.72
2023-03-19T21:23:28.374Z,100182.66
2023-03-19T21:25:56.209Z,100176.91
2023-03-19T21:28:30.635Z,100188.28
2023-03-19T21:30:58.437Z,100190.31
2023-03-19T21:33:28.893Z,100190.53
2023-03-19T21:35:57.549Z,100184.91
2023-03-19T21:38:25.470Z,100197.91
2023-03-19T21:40:58.074Z,100189.13
2023-03-19T21:43:43.846Z,100188.69
2023-03-19T21:46:24.036Z,100189.47
2023-03-19T21:48:54.503Z,100184.34
2023-03-19T21:51:23.667Z,100177.56
2023-03-19T21:53:50.995Z,100184.41
2023-03-19T21:56:33.581Z,100184.91
2023-03-19T21:59:03.705Z,100191.97
2023-03-19T22:01:31.381Z,100182.28
2023-03-19T22:03:58.733Z,100182.75
2023-03-19T22:06:26.269Z,100184.41
2023-03-19T22:08:54.278Z,100171.22
2023-03-19T22:11:28.701Z,100174.66
2023-03-19T22:14:22.757Z,100174.72
2023-03-19T22:16:54.088Z,100175.81
2023-03-19T22:19:22.026Z,100172.69
2023-03-19T22:21:49.721Z,100174.50
2023-03-19T22:24:17.022Z,100167.53
2023-03-19T22:26:46.829Z,100169.69
2023-03-19T22:29:18.398Z,100173.28
2023-03-19T22:31:48.146Z,100180.75
2023-03-19T22:34:17.306Z,100171.78
2023-03-19T22:36:45.092Z,100173.97
2023-03-19T22:39:12.814Z,100168.16
2023-03-19T22:41:46.203Z,100175.41
2023-03-19T22:44:26.674Z,100178.81
2023-03-19T22:46:56.292Z,100170.50
2023-03-19T22:49:24.872Z,100171.97
2023-03-19T22:51:52.586Z,100179.81
2023-03-19T22:54:19.856Z,100177.81
2023-03-19T22:56:47.406Z,100179.91
2023-03-19T22:59:14.663Z,100176.69
2023-03-19T23:01:47.424Z,100184.00
2023-03-19T23:04:22.484Z,100182.28
2023-03-19T23:06:51.872Z,100168.81
2023-03-19T23:09:24.850Z,100172.22
2023-03-19T23:11:53.769Z,100173.31
2023-03-19T23:14:29.657Z,100162.41
2023-03-19T23:17:06.693Z,100153.81
2023-03-19T23:19:36.708Z,100150.34
2023-03-19T23:22:06.742Z,100148.97
2023-03-19T23:24:34.377Z,100136.44
2023-03-19T23:27:03.130Z,100131.50
2023-03-19T23:29:34.466Z,100139.25
2023-03-19T23:32:03.447Z,100136.91
2023-03-19T23:34:31.530Z,100145.91
2023-03-19T23:37:00.943Z,100156.16
2023-03-19T23:39:28.927Z,100140.47
2023-03-19T23:41:59.145Z,100141.00
2023-03-19T23:44:29.210Z,100137.00
2023-03-19T23:47:01.519Z,100134.16
2023-03-19T23:49:33.341Z,100131.88
2023-03-19T23:52:02.393Z,100130.56
2023-03-19T23:54:34.429Z,100127.34
2023-03-19T23:57:06.718Z,100126.50
2023-03-19T23:59:38.145Z,100126.22
